sensor_id;sensor_type;location;lat;lon;timestamp;P1;durP1;ratioP1;P2;durP2;ratioP2
51174;SDS011;37240;50.104;20.010;2023-03-23T00:02:48;22.75;;;10.50;;
51174;SDS011;37240;50.104;20.010;2023-03-23T00:07:48;18.75;;;10.00;;
51174;SDS011;37240;50.104;20.010;2023-03-23T00:12:49;21.83;;;10.65;;
51174;SDS011;37240;50.104;20.010;2023-03-23T00:17:49;24.77;;;10.07;;
51174;SDS011;37240;50.104;20.010;2023-03-23T00:22:50;22.40;;;10.43;;
51174;SDS011;37240;50.104;20.010;2023-03-23T00:27:51;16.67;;;9.00;;
51174;SDS011;37240;50.104;20.010;2023-03-23T00:32:51;18.58;;;9.23;;
51174;SDS011;37240;50.104;20.010;2023-03-23T00:37:52;30.58;;;9.63;;
51174;SDS011;37240;50.104;20.010;2023-03-23T00:42:52;19.15;;;9.82;;
51174;SDS011;37240;50.104;20.010;2023-03-23T00:47:53;20.15;;;9.57;;
51174;SDS011;37240;50.104;20.010;2023-03-23T00:52:54;22.50;;;9.43;;
51174;SDS011;37240;50.104;20.010;2023-03-23T00:57:54;23.77;;;11.70;;
51174;SDS011;37240;50.104;20.010;2023-03-23T01:02:55;25.38;;;12.02;;
51174;SDS011;37240;50.104;20.010;2023-03-23T01:07:55;20.50;;;10.88;;
51174;SDS011;37240;50.104;20.010;2023-03-23T01:12:56;21.58;;;11.55;;
51174;SDS011;37240;50.104;20.010;2023-03-23T01:17:56;23.50;;;11.70;;
51174;SDS011;37240;50.104;20.010;2023-03-23T01:22:57;30.02;;;14.50;;
51174;SDS011;37240;50.104;20.010;2023-03-23T01:27:58;28.67;;;13.00;;
51174;SDS011;37240;50.104;20.010;2023-03-23T01:32:59;26.90;;;14.57;;
51174;SDS011;37240;50.104;20.010;2023-03-23T01:38:00;28.70;;;14.02;;
51174;SDS011;37240;50.104;20.010;2023-03-23T01:43:00;29.35;;;14.02;;
51174;SDS011;37240;50.104;20.010;2023-03-23T01:48:06;24.60;;;12.20;;
51174;SDS011;37240;50.104;20.010;2023-03-23T01:53:16;24.17;;;13.10;;
51174;SDS011;37240;50.104;20.010;2023-03-23T01:58:19;28.83;;;13.05;;
51174;SDS011;37240;50.104;20.010;2023-03-23T02:03:23;29.38;;;13.02;;
51174;SDS011;37240;50.104;20.010;2023-03-23T02:08:25;23.77;;;12.27;;
51174;SDS011;37240;50.104;20.010;2023-03-23T02:13:27;26.63;;;11.25;;
51174;SDS011;37240;50.104;20.010;2023-03-23T02:34:09;16.17;;;8.75;;
51174;SDS011;37240;50.104;20.010;2023-03-23T02:44:20;16.67;;;8.85;;
51174;SDS011;37240;50.104;20.010;2023-03-23T02:49:24;10.35;;;6.57;;
51174;SDS011;37240;50.104;20.010;2023-03-23T02:54:27;18.02;;;7.32;;
51174;SDS011;37240;50.104;20.010;2023-03-23T02:59:29;13.75;;;6.97;;
51174;SDS011;37240;50.104;20.010;2023-03-23T03:04:30;12.88;;;7.18;;
51174;SDS011;37240;50.104;20.010;2023-03-23T03:14:51;31.05;;;15.32;;
51174;SDS011;37240;50.104;20.010;2023-03-23T03:20:01;19.58;;;10.40;;
51174;SDS011;37240;50.104;20.010;2023-03-23T03:25:04;15.77;;;8.73;;
51174;SDS011;37240;50.104;20.010;2023-03-23T03:30:09;11.82;;;7.38;;
51174;SDS011;37240;50.104;20.010;2023-03-23T03:35:12;17.90;;;8.38;;
51174;SDS011;37240;50.104;20.010;2023-03-23T03:40:14;17.52;;;8.95;;
51174;SDS011;37240;50.104;20.010;2023-03-23T03:45:17;16.33;;;8.50;;
51174;SDS011;37240;50.104;20.010;2023-03-23T03:50:19;15.73;;;8.43;;
51174;SDS011;37240;50.104;20.010;2023-03-23T03:55:19;16.38;;;8.63;;
51174;SDS011;37240;50.104;20.010;2023-03-23T04:00:20;18.50;;;8.85;;
51174;SDS011;37240;50.104;20.010;2023-03-23T04:05:21;15.63;;;8.07;;
51174;SDS011;37240;50.104;20.010;2023-03-23T04:10:22;18.48;;;8.82;;
51174;SDS011;37240;50.104;20.010;2023-03-23T04:15:23;19.00;;;9.63;;
51174;SDS011;37240;50.104;20.010;2023-03-23T04:20:24;17.00;;;9.32;;
51174;SDS011;37240;50.104;20.010;2023-03-23T04:25:24;23.50;;;11.73;;
51174;SDS011;37240;50.104;20.010;2023-03-23T04:30:25;22.27;;;11.73;;
51174;SDS011;37240;50.104;20.010;2023-03-23T04:35:26;22.83;;;10.88;;
51174;SDS011;37240;50.104;20.010;2023-03-23T04:40:26;24.38;;;10.35;;
51174;SDS011;37240;50.104;20.010;2023-03-23T04:45:27;23.95;;;10.15;;
51174;SDS011;37240;50.104;20.010;2023-03-23T04:50:28;18.52;;;11.05;;
51174;SDS011;37240;50.104;20.010;2023-03-23T04:55:30;24.10;;;13.32;;
51174;SDS011;37240;50.104;20.010;2023-03-23T05:00:35;27.23;;;13.77;;
51174;SDS011;37240;50.104;20.010;2023-03-23T05:05:36;38.63;;;14.85;;
51174;SDS011;37240;50.104;20.010;2023-03-23T05:10:36;24.17;;;13.05;;
51174;SDS011;37240;50.104;20.010;2023-03-23T05:15:37;21.42;;;11.13;;
51174;SDS011;37240;50.104;20.010;2023-03-23T05:20:37;21.92;;;10.68;;
51174;SDS011;37240;50.104;20.010;2023-03-23T05:25:38;21.30;;;10.15;;
51174;SDS011;37240;50.104;20.010;2023-03-23T05:30:39;18.35;;;10.48;;
51174;SDS011;37240;50.104;20.010;2023-03-23T05:35:40;19.90;;;10.52;;
51174;SDS011;37240;50.104;20.010;2023-03-23T05:40:40;20.02;;;8.98;;
51174;SDS011;37240;50.104;20.010;2023-03-23T05:45:41;19.33;;;9.30;;
51174;SDS011;37240;50.104;20.010;2023-03-23T05:50:42;20.05;;;7.95;;
51174;SDS011;37240;50.104;20.010;2023-03-23T05:55:42;9.77;;;6.53;;
51174;SDS011;37240;50.104;20.010;2023-03-23T06:00:43;14.23;;;8.02;;
51174;SDS011;37240;50.104;20.010;2023-03-23T06:05:43;12.00;;;6.80;;
51174;SDS011;37240;50.104;20.010;2023-03-23T06:10:44;25.15;;;8.70;;
51174;SDS011;37240;50.104;20.010;2023-03-23T06:15:45;20.30;;;7.90;;
51174;SDS011;37240;50.104;20.010;2023-03-23T06:20:45;12.68;;;7.10;;
51174;SDS011;37240;50.104;20.010;2023-03-23T06:25:46;7.72;;;5.35;;
51174;SDS011;37240;50.104;20.010;2023-03-23T06:30:46;10.15;;;5.13;;
51174;SDS011;37240;50.104;20.010;2023-03-23T06:35:47;12.18;;;4.60;;
51174;SDS011;37240;50.104;20.010;2023-03-23T06:40:47;8.68;;;4.50;;
51174;SDS011;37240;50.104;20.010;2023-03-23T06:45:48;8.32;;;5.47;;
51174;SDS011;37240;50.104;20.010;2023-03-23T06:50:48;8.50;;;5.78;;
51174;SDS011;37240;50.104;20.010;2023-03-23T06:55:49;10.25;;;5.65;;
51174;SDS011;37240;50.104;20.010;2023-03-23T07:00:56;20.17;;;6.72;;
51174;SDS011;37240;50.104;20.010;2023-03-23T07:05:57;13.48;;;6.57;;
51174;SDS011;37240;50.104;20.010;2023-03-23T07:10:58;10.18;;;5.43;;
51174;SDS011;37240;50.104;20.010;2023-03-23T07:15:58;8.15;;;5.18;;
51174;SDS011;37240;50.104;20.010;2023-03-23T07:20:59;8.77;;;5.78;;
51174;SDS011;37240;50.104;20.010;2023-03-23T07:26:00;17.08;;;6.43;;
51174;SDS011;37240;50.104;20.010;2023-03-23T07:31:00;10.93;;;6.22;;
51174;SDS011;37240;50.104;20.010;2023-03-23T07:36:01;11.43;;;5.93;;
51174;SDS011;37240;50.104;20.010;2023-03-23T07:41:02;8.52;;;5.25;;
51174;SDS011;37240;50.104;20.010;2023-03-23T07:46:03;14.50;;;6.45;;
51174;SDS011;37240;50.104;20.010;2023-03-23T07:51:04;8.70;;;5.53;;
51174;SDS011;37240;50.104;20.010;2023-03-23T07:56:05;6.28;;;4.00;;
51174;SDS011;37240;50.104;20.010;2023-03-23T08:01:06;8.23;;;4.47;;
51174;SDS011;37240;50.104;20.010;2023-03-23T08:06:07;6.80;;;4.15;;
51174;SDS011;37240;50.104;20.010;2023-03-23T08:11:08;8.20;;;3.80;;
51174;SDS011;37240;50.104;20.010;2023-03-23T08:16:09;9.85;;;5.68;;
51174;SDS011;37240;50.104;20.010;2023-03-23T08:21:09;10.50;;;4.38;;
51174;SDS011;37240;50.104;20.010;2023-03-23T08:26:10;4.72;;;3.10;;
51174;SDS011;37240;50.104;20.010;2023-03-23T08:31:11;8.43;;;3.15;;
51174;SDS011;37240;50.104;20.010;2023-03-23T08:36:14;4.88;;;2.78;;
51174;SDS011;37240;50.104;20.010;2023-03-23T08:41:15;5.10;;;3.00;;
51174;SDS011;37240;50.104;20.010;2023-03-23T08:46:15;7.53;;;2.45;;
51174;SDS011;37240;50.104;20.010;2023-03-23T08:51:16;6.50;;;3.17;;
51174;SDS011;37240;50.104;20.010;2023-03-23T08:56:16;3.28;;;2.42;;
51174;SDS011;37240;50.104;20.010;2023-03-23T09:01:17;4.28;;;3.00;;
51174;SDS011;37240;50.104;20.010;2023-03-23T09:06:17;6.05;;;3.15;;
51174;SDS011;37240;50.104;20.010;2023-03-23T09:11:18;10.15;;;3.45;;
51174;SDS011;37240;50.104;20.010;2023-03-23T09:16:18;2.83;;;2.28;;
51174;SDS011;37240;50.104;20.010;2023-03-23T09:21:19;2.75;;;2.50;;
51174;SDS011;37240;50.104;20.010;2023-03-23T09:26:20;4.78;;;2.65;;
51174;SDS011;37240;50.104;20.010;2023-03-23T09:31:21;3.35;;;2.58;;
51174;SDS011;37240;50.104;20.010;2023-03-23T09:36:22;2.40;;;2.20;;
51174;SDS011;37240;50.104;20.010;2023-03-23T09:52:10;3.55;;;2.40;;
51174;SDS011;37240;50.104;20.010;2023-03-23T09:57:14;4.45;;;3.15;;
51174;SDS011;37240;50.104;20.010;2023-03-23T10:02:30;8.77;;;2.70;;
51174;SDS011;37240;50.104;20.010;2023-03-23T10:07:38;5.00;;;3.17;;
51174;SDS011;37240;50.104;20.010;2023-03-23T10:12:48;9.90;;;2.22;;
51174;SDS011;37240;50.104;20.010;2023-03-23T10:28:20;4.63;;;2.40;;
51174;SDS011;37240;50.104;20.010;2023-03-23T10:33:31;4.10;;;3.07;;
51174;SDS011;37240;50.104;20.010;2023-03-23T10:38:57;6.33;;;2.70;;
51174;SDS011;37240;50.104;20.010;2023-03-23T10:44:24;3.80;;;2.53;;
51174;SDS011;37240;50.104;20.010;2023-03-23T10:49:36;3.72;;;2.75;;
51174;SDS011;37240;50.104;20.010;2023-03-23T10:54:46;3.50;;;2.70;;
51174;SDS011;37240;50.104;20.010;2023-03-23T10:59:57;4.95;;;3.13;;
51174;SDS011;37240;50.104;20.010;2023-03-23T11:05:02;12.43;;;3.60;;
51174;SDS011;37240;50.104;20.010;2023-03-23T11:10:28;6.75;;;3.80;;
51174;SDS011;37240;50.104;20.010;2023-03-23T11:15:40;6.03;;;3.22;;
51174;SDS011;37240;50.104;20.010;2023-03-23T11:20:43;5.85;;;3.05;;
51174;SDS011;37240;50.104;20.010;2023-03-23T11:25:54;6.05;;;2.80;;
51174;SDS011;37240;50.104;20.010;2023-03-23T11:30:55;7.70;;;2.83;;
51174;SDS011;37240;50.104;20.010;2023-03-23T11:35:57;13.77;;;2.80;;
51174;SDS011;37240;50.104;20.010;2023-03-23T11:40:57;4.80;;;2.75;;
51174;SDS011;37240;50.104;20.010;2023-03-23T11:51:48;11.35;;;3.00;;
51174;SDS011;37240;50.104;20.010;2023-03-23T11:56:51;8.85;;;2.83;;
51174;SDS011;37240;50.104;20.010;2023-03-23T12:18:10;12.93;;;3.08;;
51174;SDS011;37240;50.104;20.010;2023-03-23T12:23:22;17.00;;;3.45;;
51174;SDS011;37240;50.104;20.010;2023-03-23T12:33:40;3.50;;;2.55;;
51174;SDS011;37240;50.104;20.010;2023-03-23T12:44:13;8.77;;;2.45;;
51174;SDS011;37240;50.104;20.010;2023-03-23T12:54:40;3.15;;;2.45;;
51174;SDS011;37240;50.104;20.010;2023-03-23T12:59:44;7.13;;;3.10;;
51174;SDS011;37240;50.104;20.010;2023-03-23T13:05:05;10.68;;;2.88;;
51174;SDS011;37240;50.104;20.010;2023-03-23T13:25:52;7.50;;;2.97;;
51174;SDS011;37240;50.104;20.010;2023-03-23T13:31:01;5.38;;;3.00;;
51174;SDS011;37240;50.104;20.010;2023-03-23T13:36:05;4.25;;;3.13;;
51174;SDS011;37240;50.104;20.010;2023-03-23T13:41:11;6.05;;;2.95;;
51174;SDS011;37240;50.104;20.010;2023-03-23T13:51:34;7.10;;;3.30;;
51174;SDS011;37240;50.104;20.010;2023-03-23T13:57:00;7.20;;;2.88;;
51174;SDS011;37240;50.104;20.010;2023-03-23T14:07:49;5.38;;;2.70;;
51174;SDS011;37240;50.104;20.010;2023-03-23T14:13:01;9.55;;;2.90;;
51174;SDS011;37240;50.104;20.010;2023-03-23T14:18:03;3.08;;;2.28;;
51174;SDS011;37240;50.104;20.010;2023-03-23T14:23:04;9.23;;;2.75;;
51174;SDS011;37240;50.104;20.010;2023-03-23T14:28:15;7.43;;;3.00;;
51174;SDS011;37240;50.104;20.010;2023-03-23T14:33:19;10.43;;;2.75;;
51174;SDS011;37240;50.104;20.010;2023-03-23T14:38:21;8.95;;;2.25;;
51174;SDS011;37240;50.104;20.010;2023-03-23T14:43:23;8.07;;;3.08;;
51174;SDS011;37240;50.104;20.010;2023-03-23T14:48:23;5.28;;;2.50;;
51174;SDS011;37240;50.104;20.010;2023-03-23T14:53:29;2.60;;;2.30;;
51174;SDS011;37240;50.104;20.010;2023-03-23T14:58:33;4.03;;;2.40;;
51174;SDS011;37240;50.104;20.010;2023-03-23T15:03:35;3.45;;;2.20;;
51174;SDS011;37240;50.104;20.010;2023-03-23T15:08:44;10.30;;;2.88;;
51174;SDS011;37240;50.104;20.010;2023-03-23T15:13:47;7.03;;;3.10;;
51174;SDS011;37240;50.104;20.010;2023-03-23T15:18:51;4.20;;;2.50;;
51174;SDS011;37240;50.104;20.010;2023-03-23T15:24:24;4.72;;;2.53;;
51174;SDS011;37240;50.104;20.010;2023-03-23T15:29:26;5.72;;;2.38;;
51174;SDS011;37240;50.104;20.010;2023-03-23T15:34:31;5.90;;;2.95;;
51174;SDS011;37240;50.104;20.010;2023-03-23T15:39:40;5.20;;;2.13;;
51174;SDS011;37240;50.104;20.010;2023-03-23T15:44:41;3.10;;;2.55;;
51174;SDS011;37240;50.104;20.010;2023-03-23T15:49:42;4.03;;;2.78;;
51174;SDS011;37240;50.104;20.010;2023-03-23T15:54:47;2.97;;;2.42;;
51174;SDS011;37240;50.104;20.010;2023-03-23T15:59:48;6.18;;;2.25;;
51174;SDS011;37240;50.104;20.010;2023-03-23T16:04:49;5.70;;;2.83;;
51174;SDS011;37240;50.104;20.010;2023-03-23T16:09:50;8.50;;;3.22;;
51174;SDS011;37240;50.104;20.010;2023-03-23T16:14:51;3.15;;;2.70;;
51174;SDS011;37240;50.104;20.010;2023-03-23T16:19:51;14.52;;;3.97;;
51174;SDS011;37240;50.104;20.010;2023-03-23T16:24:52;7.40;;;3.13;;
51174;SDS011;37240;50.104;20.010;2023-03-23T16:29:52;4.90;;;3.03;;
51174;SDS011;37240;50.104;20.010;2023-03-23T16:34:53;6.78;;;3.17;;
51174;SDS011;37240;50.104;20.010;2023-03-23T16:39:53;8.45;;;3.35;;
51174;SDS011;37240;50.104;20.010;2023-03-23T16:44:54;10.38;;;3.67;;
51174;SDS011;37240;50.104;20.010;2023-03-23T16:49:54;6.80;;;3.40;;
51174;SDS011;37240;50.104;20.010;2023-03-23T16:54:55;7.47;;;3.40;;
51174;SDS011;37240;50.104;20.010;2023-03-23T16:59:55;7.43;;;3.78;;
51174;SDS011;37240;50.104;20.010;2023-03-23T17:04:56;13.93;;;4.13;;
51174;SDS011;37240;50.104;20.010;2023-03-23T17:09:57;8.10;;;3.97;;
51174;SDS011;37240;50.104;20.010;2023-03-23T17:14:57;5.28;;;3.00;;
51174;SDS011;37240;50.104;20.010;2023-03-23T17:19:58;10.48;;;3.78;;
51174;SDS011;37240;50.104;20.010;2023-03-23T17:24:59;10.82;;;4.10;;
51174;SDS011;37240;50.104;20.010;2023-03-23T17:29:59;8.70;;;3.65;;
51174;SDS011;37240;50.104;20.010;2023-03-23T17:35:00;13.52;;;4.25;;
51174;SDS011;37240;50.104;20.010;2023-03-23T17:40:00;12.75;;;4.57;;
51174;SDS011;37240;50.104;20.010;2023-03-23T17:45:02;12.05;;;5.28;;
51174;SDS011;37240;50.104;20.010;2023-03-23T17:50:04;11.65;;;4.75;;
51174;SDS011;37240;50.104;20.010;2023-03-23T17:55:06;7.57;;;4.78;;
51174;SDS011;37240;50.104;20.010;2023-03-23T18:00:07;12.73;;;5.53;;
51174;SDS011;37240;50.104;20.010;2023-03-23T18:05:08;14.57;;;5.95;;
51174;SDS011;37240;50.104;20.010;2023-03-23T18:10:09;11.85;;;5.85;;
51174;SDS011;37240;50.104;20.010;2023-03-23T18:15:09;18.58;;;6.40;;
51174;SDS011;37240;50.104;20.010;2023-03-23T18:20:10;12.13;;;6.15;;
51174;SDS011;37240;50.104;20.010;2023-03-23T18:25:11;15.18;;;5.90;;
51174;SDS011;37240;50.104;20.010;2023-03-23T18:30:11;13.57;;;7.18;;
51174;SDS011;37240;50.104;20.010;2023-03-23T18:35:12;19.10;;;7.00;;
51174;SDS011;37240;50.104;20.010;2023-03-23T18:40:13;13.68;;;5.97;;
51174;SDS011;37240;50.104;20.010;2023-03-23T18:45:14;17.73;;;7.00;;
51174;SDS011;37240;50.104;20.010;2023-03-23T18:50:14;13.20;;;6.70;;
51174;SDS011;37240;50.104;20.010;2023-03-23T18:55:15;23.83;;;7.72;;
51174;SDS011;37240;50.104;20.010;2023-03-23T19:00:16;20.48;;;7.93;;
51174;SDS011;37240;50.104;20.010;2023-03-23T19:05:16;21.92;;;7.55;;
51174;SDS011;37240;50.104;20.010;2023-03-23T19:10:17;12.90;;;6.85;;
51174;SDS011;37240;50.104;20.010;2023-03-23T19:15:18;22.60;;;7.32;;
51174;SDS011;37240;50.104;20.010;2023-03-23T19:20:19;14.60;;;7.60;;
51174;SDS011;37240;50.104;20.010;2023-03-23T19:25:19;22.10;;;9.43;;
51174;SDS011;37240;50.104;20.010;2023-03-23T19:30:20;20.98;;;9.82;;
51174;SDS011;37240;50.104;20.010;2023-03-23T19:35:20;16.70;;;9.15;;
51174;SDS011;37240;50.104;20.010;2023-03-23T19:40:21;17.83;;;8.82;;
51174;SDS011;37240;50.104;20.010;2023-03-23T19:45:21;22.80;;;10.07;;
51174;SDS011;37240;50.104;20.010;2023-03-23T19:50:22;19.13;;;9.73;;
51174;SDS011;37240;50.104;20.010;2023-03-23T19:55:23;24.50;;;10.75;;
51174;SDS011;37240;50.104;20.010;2023-03-23T20:00:23;20.23;;;10.93;;
51174;SDS011;37240;50.104;20.010;2023-03-23T20:05:24;32.83;;;13.07;;
51174;SDS011;37240;50.104;20.010;2023-03-23T20:10:24;27.17;;;12.30;;
51174;SDS011;37240;50.104;20.010;2023-03-23T20:15:25;22.88;;;11.93;;
51174;SDS011;37240;50.104;20.010;2023-03-23T20:20:26;37.70;;;13.13;;
51174;SDS011;37240;50.104;20.010;2023-03-23T20:25:27;24.27;;;9.73;;
51174;SDS011;37240;50.104;20.010;2023-03-23T20:30:28;24.75;;;11.27;;
51174;SDS011;37240;50.104;20.010;2023-03-23T20:35:28;21.75;;;10.35;;
51174;SDS011;37240;50.104;20.010;2023-03-23T20:40:29;25.67;;;10.52;;
51174;SDS011;37240;50.104;20.010;2023-03-23T20:45:30;25.90;;;10.32;;
51174;SDS011;37240;50.104;20.010;2023-03-23T20:50:30;19.65;;;9.07;;
51174;SDS011;37240;50.104;20.010;2023-03-23T20:55:31;18.83;;;9.23;;
51174;SDS011;37240;50.104;20.010;2023-03-23T21:00:31;22.10;;;10.77;;
51174;SDS011;37240;50.104;20.010;2023-03-23T21:05:32;18.95;;;9.55;;
51174;SDS011;37240;50.104;20.010;2023-03-23T21:10:33;19.88;;;9.63;;
51174;SDS011;37240;50.104;20.010;2023-03-23T21:15:34;24.13;;;11.13;;
51174;SDS011;37240;50.104;20.010;2023-03-23T21:20:35;26.70;;;12.02;;
51174;SDS011;37240;50.104;20.010;2023-03-23T21:25:36;24.02;;;11.35;;
51174;SDS011;37240;50.104;20.010;2023-03-23T21:30:37;26.88;;;11.65;;
51174;SDS011;37240;50.104;20.010;2023-03-23T21:35:38;32.40;;;12.05;;
51174;SDS011;37240;50.104;20.010;2023-03-23T21:40:40;27.25;;;12.30;;
51174;SDS011;37240;50.104;20.010;2023-03-23T21:45:41;24.30;;;12.80;;
51174;SDS011;37240;50.104;20.010;2023-03-23T21:50:43;33.53;;;13.25;;
51174;SDS011;37240;50.104;20.010;2023-03-23T21:55:44;30.05;;;13.45;;
51174;SDS011;37240;50.104;20.010;2023-03-23T22:00:45;31.80;;;14.25;;
51174;SDS011;37240;50.104;20.010;2023-03-23T22:05:46;30.80;;;13.73;;
51174;SDS011;37240;50.104;20.010;2023-03-23T22:10:47;37.33;;;15.18;;
51174;SDS011;37240;50.104;20.010;2023-03-23T22:15:48;29.52;;;15.10;;
51174;SDS011;37240;50.104;20.010;2023-03-23T22:20:50;39.38;;;16.38;;
51174;SDS011;37240;50.104;20.010;2023-03-23T22:25:51;30.65;;;14.80;;
51174;SDS011;37240;50.104;20.010;2023-03-23T22:30:52;44.83;;;16.63;;
51174;SDS011;37240;50.104;20.010;2023-03-23T22:35:54;42.30;;;17.00;;
51174;SDS011;37240;50.104;20.010;2023-03-23T22:40:55;34.50;;;17.33;;
51174;SDS011;37240;50.104;20.010;2023-03-23T22:45:57;41.25;;;18.38;;
51174;SDS011;37240;50.104;20.010;2023-03-23T22:50:57;38.92;;;16.60;;
51174;SDS011;37240;50.104;20.010;2023-03-23T22:55:59;38.13;;;16.08;;
51174;SDS011;37240;50.104;20.010;2023-03-23T23:01:00;33.88;;;15.68;;
51174;SDS011;37240;50.104;20.010;2023-03-23T23:06:06;38.00;;;15.50;;
51174;SDS011;37240;50.104;20.010;2023-03-23T23:11:09;43.17;;;16.25;;
51174;SDS011;37240;50.104;20.010;2023-03-23T23:16:11;39.47;;;16.05;;
51174;SDS011;37240;50.104;20.010;2023-03-23T23:21:14;37.80;;;16.25;;
51174;SDS011;37240;50.104;20.010;2023-03-23T23:26:17;38.50;;;15.88;;
51174;SDS011;37240;50.104;20.010;2023-03-23T23:31:25;34.75;;;14.23;;
51174;SDS011;37240;50.104;20.010;2023-03-23T23:36:28;34.60;;;16.05;;
51174;SDS011;37240;50.104;20.010;2023-03-23T23:41:29;32.55;;;15.95;;
51174;SDS011;37240;50.104;20.010;2023-03-23T23:46:30;48.42;;;16.52;;
51174;SDS011;37240;50.104;20.010;2023-03-23T23:51:31;34.97;;;16.65;;
51174;SDS011;37240;50.104;20.010;2023-03-23T23:56:31;45.25;;;18.85;;
